createdAt,value
2023-02-12T00:00:16.126Z,4.40
2023-02-12T00:05:19.664Z,4.68
2023-02-12T00:10:21.912Z,4.20
2023-02-12T00:15:24.082Z,2.95
2023-02-12T00:20:27.745Z,4.63
2023-02-12T00:25:29.973Z,2.73
2023-02-12T00:30:32.093Z,2.33
2023-02-12T00:35:36.394Z,2.58
2023-02-12T00:40:38.817Z,2.35
2023-02-12T00:45:41.050Z,2.20
2023-02-12T00:50:47.569Z,2.03
2023-02-12T00:55:49.726Z,2.10
2023-02-12T01:00:52.885Z,2.40
2023-02-12T01:05:56.653Z,2.33
2023-02-12T01:11:03.359Z,3.38
2023-02-12T01:16:08.962Z,4.37
2023-02-12T01:21:16.798Z,2.88
2023-02-12T01:26:21.404Z,3.30
2023-02-12T01:31:26.548Z,3.10
2023-02-12T01:36:32.552Z,3.08
2023-02-12T01:41:39.741Z,3.10
2023-02-12T01:46:43.982Z,2.45
2023-02-12T01:51:52.356Z,2.72
2023-02-12T01:56:55.588Z,2.75
2023-02-12T02:01:58.557Z,2.50
2023-02-12T02:07:04.933Z,2.10
2023-02-12T02:12:08.166Z,2.17
2023-02-12T02:17:49.682Z,2.50
2023-02-12T02:23:13.470Z,2.42
2023-02-12T02:28:45.495Z,2.45
2023-02-12T02:33:57.489Z,3.60
2023-02-12T02:39:09.274Z,2.85
2023-02-12T02:44:19.664Z,2.63
2023-02-12T02:49:30.574Z,1.85
2023-02-12T02:54:37.758Z,2.20
2023-02-12T02:59:47.670Z,1.83
2023-02-12T03:04:57.909Z,2.55
2023-02-12T03:10:07.769Z,3.08
2023-02-12T03:15:18.269Z,2.70
2023-02-12T03:20:28.973Z,2.55
2023-02-12T03:25:38.369Z,2.17
2023-02-12T03:30:48.204Z,2.22
2023-02-12T03:36:02.540Z,3.17
2023-02-12T03:41:10.879Z,3.35
2023-02-12T03:46:24.541Z,4.40
2023-02-12T03:51:35.010Z,3.30
2023-02-12T03:56:44.199Z,3.50
2023-02-12T04:01:48.779Z,3.38
2023-02-12T04:06:54.454Z,2.92
2023-02-12T04:12:15.488Z,3.00
2023-02-12T04:17:30.120Z,3.37
2023-02-12T04:22:51.180Z,4.10
2023-02-12T04:28:03.423Z,3.63
2023-02-12T04:33:10.601Z,3.50
2023-02-12T04:38:20.464Z,3.60
2023-02-12T04:43:28.464Z,3.67
2023-02-12T04:48:30.860Z,3.97
2023-02-12T04:53:34.390Z,4.38
2023-02-12T04:58:36.581Z,3.53
2023-02-12T05:03:39.018Z,3.97
2023-02-12T05:08:42.459Z,5.53
2023-02-12T05:13:47.927Z,4.03
2023-02-12T05:18:50.108Z,4.30
2023-02-12T05:23:53.603Z,3.70
2023-02-12T05:28:55.802Z,4.50
2023-02-12T05:33:58.011Z,3.10
2023-02-12T05:39:01.602Z,3.92
2023-02-12T05:44:05.008Z,3.10
2023-02-12T05:49:07.210Z,3.40
2023-02-12T05:54:10.951Z,3.60
2023-02-12T05:59:16.630Z,3.67
2023-02-12T06:04:22.480Z,4.78
2023-02-12T06:09:26.424Z,3.90
2023-02-12T06:14:31.489Z,3.65
2023-02-12T06:19:34.396Z,3.53
2023-02-12T06:24:38.283Z,3.70
2023-02-12T06:29:40.570Z,3.47
2023-02-12T06:34:42.782Z,5.57
2023-02-12T06:39:46.678Z,6.35
2023-02-12T06:44:51.310Z,6.63
2023-02-12T06:49:54.973Z,12.27
2023-02-12T06:54:58.588Z,10.73
2023-02-12T07:00:00.893Z,10.30
2023-02-12T07:05:03.729Z,9.77
2023-02-12T07:10:09.598Z,9.20
2023-02-12T07:15:12.468Z,9.90
2023-02-12T07:20:15.025Z,8.85
2023-02-12T07:25:18.810Z,9.07
2023-02-12T07:30:21.453Z,10.98
2023-02-12T07:35:23.999Z,13.18
2023-02-12T07:40:27.879Z,14.27
2023-02-12T07:45:30.192Z,14.52
2023-02-12T07:50:32.455Z,16.73
2023-02-12T07:55:36.185Z,13.13
2023-02-12T08:00:38.553Z,9.30
2023-02-12T08:05:40.827Z,9.30
2023-02-12T08:10:44.417Z,9.40
2023-02-12T08:15:46.636Z,9.13
2023-02-12T08:20:48.947Z,9.93
2023-02-12T08:25:52.820Z,8.65
2023-02-12T08:31:01.405Z,8.30
2023-02-12T08:36:07.115Z,8.30
2023-02-12T08:41:13.239Z,9.95
2023-02-12T08:46:18.912Z,14.82
2023-02-12T08:51:24.626Z,10.25
2023-02-12T08:56:30.539Z,8.80
2023-02-12T09:01:36.891Z,7.25
2023-02-12T09:06:39.360Z,8.45
2023-02-12T09:11:45.100Z,14.13
2023-02-12T09:16:47.519Z,13.73
2023-02-12T09:21:55.236Z,14.13
2023-02-12T09:26:59.663Z,13.10
2023-02-12T09:32:02.189Z,8.65
2023-02-12T09:37:04.506Z,8.40
2023-02-12T09:42:31.946Z,10.73
2023-02-12T09:47:44.813Z,11.63
2023-02-12T09:52:49.280Z,11.18
2023-02-12T09:57:54.957Z,9.95
2023-02-12T10:03:03.991Z,12.93
2023-02-12T10:08:41.580Z,20.75
2023-02-12T10:13:59.041Z,16.30
2023-02-12T10:19:21.337Z,20.00
2023-02-12T10:24:56.161Z,16.65
2023-02-12T10:30:01.292Z,6.40
2023-02-12T10:35:15.186Z,17.73
2023-02-12T10:40:23.559Z,11.67
2023-02-12T10:45:31.718Z,14.95
2023-02-12T10:50:47.727Z,12.90
2023-02-12T10:56:04.086Z,15.90
2023-02-12T11:01:17.814Z,13.75
2023-02-12T11:06:23.750Z,22.90
2023-02-12T11:11:32.769Z,13.88
2023-02-12T11:16:43.903Z,16.40
2023-02-12T11:21:46.622Z,18.75
2023-02-12T11:26:49.020Z,18.13
2023-02-12T11:32:06.218Z,11.53
2023-02-12T11:37:17.443Z,14.93
2023-02-12T11:42:24.347Z,13.50
2023-02-12T11:47:31.652Z,15.20
2023-02-12T11:52:39.943Z,12.68
2023-02-12T11:57:47.032Z,11.20
2023-02-12T12:02:58.549Z,10.82
2023-02-12T12:08:07.783Z,8.93
2023-02-12T12:13:16.235Z,10.80
2023-02-12T12:18:31.225Z,11.15
2023-02-12T12:23:40.337Z,13.57
2023-02-12T12:28:50.389Z,11.23
2023-02-12T12:34:04.536Z,10.75
2023-02-12T12:39:17.565Z,12.25
2023-02-12T12:44:42.932Z,10.18
2023-02-12T12:50:00.233Z,10.43
2023-02-12T12:55:26.450Z,10.80
2023-02-12T13:00:57.860Z,14.30
2023-02-12T13:06:35.952Z,12.43
2023-02-12T13:11:57.391Z,27.23
2023-02-12T13:17:14.035Z,17.17
2023-02-12T13:22:35.551Z,25.70
2023-02-12T13:27:43.556Z,18.95
2023-02-12T13:32:55.249Z,14.73
2023-02-12T13:38:02.862Z,15.80
2023-02-12T13:43:27.249Z,12.27
2023-02-12T13:48:52.084Z,19.67
2023-02-12T13:54:22.315Z,17.42
2023-02-12T13:59:46.803Z,14.77
2023-02-12T14:04:57.506Z,13.13
2023-02-12T14:10:06.977Z,11.80
2023-02-12T14:15:22.241Z,13.77
2023-02-12T14:20:29.202Z,17.02
2023-02-12T14:25:56.654Z,22.87
2023-02-12T14:31:34.284Z,21.30
2023-02-12T14:36:39.284Z,24.40
2023-02-12T14:41:43.108Z,16.25
2023-02-12T14:46:49.120Z,23.33
2023-02-12T14:51:59.158Z,41.20
2023-02-12T14:57:10.261Z,35.33
2023-02-12T15:02:23.374Z,18.13
2023-02-12T15:07:33.467Z,14.15
2023-02-12T15:12:42.698Z,17.17
2023-02-12T15:18:00.341Z,13.93
2023-02-12T15:23:02.647Z,15.63
2023-02-12T15:28:19.010Z,14.63
2023-02-12T15:33:28.195Z,20.00
2023-02-12T15:38:35.377Z,19.15
2023-02-12T15:43:41.721Z,15.50
2023-02-12T15:48:44.858Z,15.07
2023-02-12T15:53:47.832Z,15.33
2023-02-12T15:58:54.823Z,15.40
2023-02-12T16:04:00.364Z,19.30
2023-02-12T16:09:07.697Z,16.37
2023-02-12T16:14:23.493Z,15.10
2023-02-12T16:19:28.732Z,14.07
2023-02-12T16:24:34.710Z,15.57
2023-02-12T16:29:45.793Z,13.85
2023-02-12T16:35:01.144Z,16.17
2023-02-12T16:40:27.046Z,16.15
2023-02-12T16:45:40.722Z,13.23
2023-02-12T16:50:50.704Z,13.60
2023-02-12T16:55:53.409Z,12.13
2023-02-12T17:00:59.250Z,12.30
2023-02-12T17:06:01.545Z,12.13
2023-02-12T17:11:04.355Z,13.47
2023-02-12T17:16:09.998Z,13.43
2023-02-12T17:21:23.696Z,12.10
2023-02-12T17:26:25.925Z,12.97
2023-02-12T17:31:29.526Z,11.45
2023-02-12T17:36:32.443Z,11.27
2023-02-12T17:41:35.174Z,11.45
2023-02-12T17:46:38.953Z,11.10
2023-02-12T17:51:41.290Z,12.47
2023-02-12T17:56:43.596Z,11.60
2023-02-12T18:01:47.293Z,11.03
2023-02-12T18:06:49.660Z,10.90
2023-02-12T18:11:52.181Z,11.50
2023-02-12T18:16:56.199Z,11.80
2023-02-12T18:21:58.475Z,14.90
2023-02-12T18:27:00.718Z,14.87
2023-02-12T18:32:04.482Z,11.38
2023-02-12T18:37:06.996Z,12.68
2023-02-12T18:42:09.312Z,11.53
2023-02-12T18:47:13.009Z,13.40
2023-02-12T18:52:15.748Z,10.33
2023-02-12T18:57:20.125Z,12.88
2023-02-12T19:02:26.241Z,11.60
2023-02-12T19:07:28.707Z,10.43
2023-02-12T19:12:31.182Z,12.88
2023-02-12T19:17:36.189Z,11.43
2023-02-12T19:22:38.794Z,10.73
2023-02-12T19:27:41.077Z,10.10
2023-02-12T19:32:44.638Z,11.30
2023-02-12T19:37:47.023Z,12.57
2023-02-12T19:42:49.580Z,10.17
2023-02-12T19:47:53.607Z,10.68
2023-02-12T19:52:56.249Z,10.65
2023-02-12T19:57:58.649Z,11.27
2023-02-12T20:03:02.377Z,9.77
2023-02-12T20:08:05.097Z,10.97
2023-02-12T20:13:08.446Z,9.93
2023-02-12T20:18:12.104Z,10.65
2023-02-12T20:23:15.047Z,10.63
2023-02-12T20:28:17.926Z,11.40
2023-02-12T20:33:24.426Z,10.97
2023-02-12T20:38:27.546Z,10.95
2023-02-12T20:43:30.059Z,11.95
2023-02-12T20:48:35.033Z,11.73
2023-02-12T20:53:38.496Z,11.55
2023-02-12T20:58:41.984Z,10.40
2023-02-12T21:03:45.926Z,11.25
2023-02-12T21:08:48.896Z,9.98
2023-02-12T21:14:02.210Z,11.53
2023-02-12T21:19:06.529Z,12.30
2023-02-12T21:24:13.704Z,12.83
2023-02-12T21:29:17.023Z,11.77
2023-02-12T21:34:23.701Z,10.43
2023-02-12T21:39:28.577Z,9.40
2023-02-12T21:44:33.446Z,9.05
2023-02-12T21:49:37.259Z,10.43
2023-02-12T21:54:39.444Z,9.15
2023-02-12T21:59:41.646Z,9.43
2023-02-12T22:04:45.182Z,9.20
2023-02-12T22:09:47.446Z,9.65
2023-02-12T22:14:49.957Z,13.60
2023-02-12T22:19:53.427Z,11.75
2023-02-12T22:24:55.960Z,9.25
2023-02-12T22:29:58.425Z,13.38
2023-02-12T22:35:02.014Z,9.65
2023-02-12T22:40:05.400Z,8.83
2023-02-12T22:45:08.632Z,8.73
2023-02-12T22:50:12.446Z,7.70
2023-02-12T22:55:14.854Z,8.10
2023-02-12T23:00:18.819Z,8.85
2023-02-12T23:05:22.373Z,8.37
2023-02-12T23:10:24.616Z,8.80
2023-02-12T23:15:27.026Z,8.30
2023-02-12T23:20:30.604Z,8.53
2023-02-12T23:25:32.812Z,11.82
2023-02-12T23:30:35.142Z,9.43
2023-02-12T23:35:38.948Z,8.32
2023-02-12T23:40:42.425Z,7.22
2023-02-12T23:45:45.069Z,8.10
2023-02-12T23:50:49.901Z,9.63
2023-02-12T23:55:52.239Z,9.27
